Time;durP1;ratioP1;P1;durP2;ratioP2;P2;SDS_P1;SDS_P2;PMS_P1;PMS_P2;Temp;Humidity;BMP_temperature;BMP_pressure;BME280_temperature;BME280_humidity;BME280_pressure;Samples;Min_cycle;Max_cycle;Signal;HPM_P1;HPM_P2
2022/11/14 00:01:08;;;;;;;15.07;8.83;;;;;;;;;;4992718;28;20534;-69
2022/11/14 00:03:33;;;;;;;17.67;9.02;;;;;;;;;;4990439;28;20826;-69
2022/11/14 00:05:58;;;;;;;17.17;8.93;;;;;;;;;;4991194;28;20034;-69
2022/11/14 00:08:26;;;;;;;22.00;8.97;;;;;;;;;;4994415;28;20026;-69
2022/11/14 00:10:51;;;;;;;22.10;9.38;;;;;;;;;;4997680;28;20272;-69
2022/11/14 00:13:17;;;;;;;17.67;9.80;;;;;;;;;;4992855;28;20289;-69
2022/11/14 00:15:43;;;;;;;19.20;9.13;;;;;;;;;;5015677;22;20525;-68
2022/11/14 00:18:08;;;;;;;19.17;9.13;;;;;;;;;;5011605;28;20022;-68
2022/11/14 00:20:33;;;;;;;17.13;8.95;;;;;;;;;;5011531;28;20127;-68
2022/11/14 00:22:59;;;;;;;19.83;8.27;;;;;;;;;;5011956;28;20466;-68
2022/11/14 00:25:24;;;;;;;22.38;9.60;;;;;;;;;;5010371;28;20030;-68
2022/11/14 00:27:49;;;;;;;16.77;8.15;;;;;;;;;;5011055;28;20033;-68
2022/11/14 00:30:14;;;;;;;16.70;8.48;;;;;;;;;;5004100;28;20099;-69
2022/11/14 00:32:39;;;;;;;18.15;8.48;;;;;;;;;;5008758;28;20475;-69
2022/11/14 00:35:05;;;;;;;20.37;8.80;;;;;;;;;;5011314;28;20093;-69
2022/11/14 00:37:30;;;;;;;16.02;8.90;;;;;;;;;;5007577;28;20686;-69
2022/11/14 00:39:55;;;;;;;16.05;7.78;;;;;;;;;;5005004;28;20029;-69
2022/11/14 00:42:20;;;;;;;14.77;7.70;;;;;;;;;;5007938;28;20026;-69
2022/11/14 00:44:46;;;;;;;17.23;8.50;;;;;;;;;;5010863;28;20636;-69
2022/11/14 00:47:11;;;;;;;16.63;7.95;;;;;;;;;;5011036;28;20113;-69
2022/11/14 00:49:36;;;;;;;16.57;8.10;;;;;;;;;;5009818;28;20458;-69
2022/11/14 00:52:01;;;;;;;15.07;7.80;;;;;;;;;;5011912;28;20261;-68
2022/11/14 00:54:26;;;;;;;19.27;9.35;;;;;;;;;;5005023;28;20022;-69
2022/11/14 00:56:51;;;;;;;21.35;9.05;;;;;;;;;;5008788;28;20489;-69
2022/11/14 00:59:17;;;;;;;18.08;8.88;;;;;;;;;;5009970;28;20076;-69
2022/11/14 01:01:42;;;;;;;15.07;7.00;;;;;;;;;;5011728;28;20061;-69
2022/11/14 01:04:07;;;;;;;15.15;7.75;;;;;;;;;;5009248;28;20356;-69
2022/11/14 01:06:32;;;;;;;15.53;7.43;;;;;;;;;;5008898;28;20199;-69
2022/11/14 01:08:57;;;;;;;13.57;7.47;;;;;;;;;;5007206;28;20308;-70
2022/11/14 01:11:23;;;;;;;14.50;7.20;;;;;;;;;;5011561;28;20060;-69
2022/11/14 01:13:48;;;;;;;16.92;8.32;;;;;;;;;;5009908;28;20425;-69
2022/11/14 01:16:13;;;;;;;14.02;8.15;;;;;;;;;;5010144;28;20021;-69
2022/11/14 01:18:39;;;;;;;12.43;8.05;;;;;;;;;;5008729;28;20385;-69
2022/11/14 01:21:05;;;;;;;22.98;8.75;;;;;;;;;;5010375;28;20072;-69
2022/11/14 01:23:31;;;;;;;14.63;8.15;;;;;;;;;;5009305;28;20453;-69
2022/11/14 01:26:00;;;;;;;14.95;7.38;;;;;;;;;;5010112;28;20026;-69
2022/11/14 01:28:25;;;;;;;15.07;8.00;;;;;;;;;;5011160;28;20017;-69
2022/11/14 01:30:50;;;;;;;16.83;7.72;;;;;;;;;;5010223;28;20109;-69
2022/11/14 01:33:15;;;;;;;14.57;7.25;;;;;;;;;;5010713;28;20028;-69
2022/11/14 01:35:40;;;;;;;12.18;7.03;;;;;;;;;;5009846;28;20056;-69
2022/11/14 01:38:06;;;;;;;17.10;7.75;;;;;;;;;;5007932;28;20064;-69
2022/11/14 01:40:32;;;;;;;14.48;7.13;;;;;;;;;;5010065;28;20113;-69
2022/11/14 01:43:15;;;;;;;16.20;7.28;;;;;;;;;;5009125;28;20025;-69
2022/11/14 01:46:00;;;;;;;17.33;7.97;;;;;;;;;;5003951;28;20029;-69
2022/11/14 01:48:44;;;;;;;13.55;7.03;;;;;;;;;;5004035;28;20371;-69
2022/11/14 01:51:16;;;;;;;12.80;6.68;;;;;;;;;;5008466;28;20286;-69
2022/11/14 01:53:42;;;;;;;14.13;6.60;;;;;;;;;;5008145;28;20022;-68
2022/11/14 01:56:07;;;;;;;12.25;6.40;;;;;;;;;;5008435;28;20105;-68
2022/11/14 01:58:34;;;;;;;13.98;6.25;;;;;;;;;;5006108;28;20030;-68
2022/11/14 02:00:59;;;;;;;13.52;6.68;;;;;;;;;;5009854;28;20025;-68
2022/11/14 02:03:25;;;;;;;11.45;6.05;;;;;;;;;;5008434;28;20030;-69
2022/11/14 02:05:51;;;;;;;11.70;6.53;;;;;;;;;;5008726;28;20049;-69
2022/11/14 02:08:16;;;;;;;14.25;6.35;;;;;;;;;;5008441;28;20340;-69
2022/11/14 02:10:42;;;;;;;10.13;5.75;;;;;;;;;;5009612;28;20017;-69
2022/11/14 02:13:07;;;;;;;13.15;6.00;;;;;;;;;;5009858;28;20117;-69
2022/11/14 02:15:33;;;;;;;16.48;6.82;;;;;;;;;;5009328;28;20028;-69
2022/11/14 02:17:58;;;;;;;11.50;5.88;;;;;;;;;;5008285;28;20024;-69
2022/11/14 02:20:27;;;;;;;15.27;5.90;;;;;;;;;;5008362;28;20022;-69
2022/11/14 02:22:53;;;;;;;12.02;6.05;;;;;;;;;;5008164;28;20099;-69
2022/11/14 02:25:18;;;;;;;11.23;5.75;;;;;;;;;;5009587;28;20478;-69
2022/11/14 02:27:43;;;;;;;12.20;6.18;;;;;;;;;;5009937;28;20466;-69
2022/11/14 02:30:11;;;;;;;14.45;6.32;;;;;;;;;;5008785;28;20013;-69
2022/11/14 02:32:36;;;;;;;16.33;6.68;;;;;;;;;;5009653;28;20366;-69
2022/11/14 02:35:01;;;;;;;12.60;5.95;;;;;;;;;;5007554;28;20022;-69
2022/11/14 02:37:26;;;;;;;14.57;6.45;;;;;;;;;;5010097;28;20022;-69
2022/11/14 02:39:52;;;;;;;12.25;5.43;;;;;;;;;;5005910;28;20108;-69
2022/11/14 02:42:17;;;;;;;14.10;6.35;;;;;;;;;;5013422;28;20475;-69
2022/11/14 02:44:42;;;;;;;10.75;5.30;;;;;;;;;;5007248;28;20041;-69
2022/11/14 02:47:07;;;;;;;12.18;5.40;;;;;;;;;;5006997;28;20018;-69
2022/11/14 02:49:32;;;;;;;10.07;5.55;;;;;;;;;;5009588;28;20022;-69
2022/11/14 02:51:58;;;;;;;8.18;5.35;;;;;;;;;;5008241;28;20505;-69
2022/11/14 02:54:23;;;;;;;10.52;5.00;;;;;;;;;;5008247;28;20144;-69
2022/11/14 02:56:48;;;;;;;8.95;4.97;;;;;;;;;;5009505;28;20022;-69
2022/11/14 02:59:13;;;;;;;8.65;4.80;;;;;;;;;;5007789;28;20053;-69
2022/11/14 03:01:38;;;;;;;10.65;4.72;;;;;;;;;;5007053;28;20018;-69
2022/11/14 03:04:03;;;;;;;9.43;4.57;;;;;;;;;;5009063;28;20032;-69
2022/11/14 03:06:29;;;;;;;10.02;4.55;;;;;;;;;;5008548;28;20280;-69
2022/11/14 03:08:54;;;;;;;9.05;4.25;;;;;;;;;;5009220;28;20029;-67
2022/11/14 03:11:19;;;;;;;7.10;4.57;;;;;;;;;;5009932;28;20010;-67
2022/11/14 03:13:44;;;;;;;9.25;4.00;;;;;;;;;;5006631;28;20311;-67
2022/11/14 03:16:10;;;;;;;10.25;4.20;;;;;;;;;;5005217;28;20395;-67
2022/11/14 03:18:36;;;;;;;8.80;4.13;;;;;;;;;;5006561;28;20490;-67
2022/11/14 03:21:05;;;;;;;10.50;4.13;;;;;;;;;;5010014;28;20036;-68
2022/11/14 03:23:31;;;;;;;7.30;4.03;;;;;;;;;;5007745;28;20025;-68
2022/11/14 03:25:58;;;;;;;8.30;3.67;;;;;;;;;;5008559;28;20033;-68
2022/11/14 03:28:23;;;;;;;7.97;3.30;;;;;;;;;;5008451;28;20501;-68
2022/11/14 03:30:48;;;;;;;11.77;4.53;;;;;;;;;;5005496;28;20033;-68
2022/11/14 03:33:13;;;;;;;7.25;3.90;;;;;;;;;;5010144;28;20076;-69
2022/11/14 03:35:41;;;;;;;7.80;4.13;;;;;;;;;;5012170;28;20053;-69
2022/11/14 03:38:06;;;;;;;6.78;3.90;;;;;;;;;;5013612;28;20292;-69
2022/11/14 03:40:31;;;;;;;17.83;4.07;;;;;;;;;;5012634;28;20056;-69
2022/11/14 03:42:56;;;;;;;6.53;3.30;;;;;;;;;;5010641;28;20622;-69
2022/11/14 03:45:21;;;;;;;6.78;3.83;;;;;;;;;;5007770;28;20292;-69
2022/11/14 03:47:46;;;;;;;9.13;4.10;;;;;;;;;;5011893;28;20010;-69
2022/11/14 03:50:12;;;;;;;11.77;3.35;;;;;;;;;;5012250;28;20284;-69
2022/11/14 03:52:37;;;;;;;9.68;3.85;;;;;;;;;;5012000;28;20054;-69
2022/11/14 03:55:02;;;;;;;6.90;3.33;;;;;;;;;;5011959;28;20018;-69
2022/11/14 03:57:27;;;;;;;7.85;3.22;;;;;;;;;;5012345;28;20565;-69
2022/11/14 03:59:52;;;;;;;7.10;4.23;;;;;;;;;;5005304;28;20033;-69
2022/11/14 04:02:18;;;;;;;6.97;3.60;;;;;;;;;;5009858;28;20264;-69
2022/11/14 04:04:43;;;;;;;6.30;3.22;;;;;;;;;;5009997;28;20050;-69
2022/11/14 04:07:08;;;;;;;7.32;3.55;;;;;;;;;;5012068;28;20021;-68
2022/11/14 04:09:33;;;;;;;7.38;3.58;;;;;;;;;;5009729;28;20025;-68
2022/11/14 04:11:58;;;;;;;10.30;3.43;;;;;;;;;;5010393;28;20025;-68
2022/11/14 04:14:23;;;;;;;7.68;3.33;;;;;;;;;;4998846;28;20285;-70
2022/11/14 04:16:49;;;;;;;10.52;4.10;;;;;;;;;;5007118;28;20068;-69
2022/11/14 04:19:14;;;;;;;5.90;3.70;;;;;;;;;;5010090;28;20048;-69
2022/11/14 04:21:39;;;;;;;13.40;3.60;;;;;;;;;;5012243;28;20395;-69
2022/11/14 04:24:04;;;;;;;7.72;3.75;;;;;;;;;;5011662;28;20269;-67
2022/11/14 04:26:30;;;;;;;9.52;3.15;;;;;;;;;;5010995;28;20034;-67
2022/11/14 04:28:55;;;;;;;7.57;3.70;;;;;;;;;;5008881;28;20092;-67
2022/11/14 04:31:20;;;;;;;7.28;3.17;;;;;;;;;;5006323;28;20022;-67
2022/11/14 04:33:45;;;;;;;9.05;3.20;;;;;;;;;;5010067;28;20017;-67
2022/11/14 04:36:10;;;;;;;6.50;3.40;;;;;;;;;;5010422;28;20013;-67
2022/11/14 04:38:38;;;;;;;7.20;3.50;;;;;;;;;;5011951;28;20079;-68
2022/11/14 04:41:03;;;;;;;6.80;3.63;;;;;;;;;;5010138;28;20026;-68
2022/11/14 04:43:28;;;;;;;7.47;3.35;;;;;;;;;;5009811;28;20076;-69
2022/11/14 04:45:53;;;;;;;9.93;3.50;;;;;;;;;;5002989;28;20037;-69
2022/11/14 04:48:18;;;;;;;5.03;3.47;;;;;;;;;;5008610;28;20368;-69
2022/11/14 04:50:44;;;;;;;9.40;3.33;;;;;;;;;;5008880;28;20033;-69
2022/11/14 04:53:10;;;;;;;12.50;3.50;;;;;;;;;;5009850;28;20021;-69
2022/11/14 04:55:35;;;;;;;10.93;3.30;;;;;;;;;;5008267;28;20029;-69
2022/11/14 04:58:01;;;;;;;7.18;2.78;;;;;;;;;;5007781;28;20030;-67
2022/11/14 05:00:26;;;;;;;7.80;3.45;;;;;;;;;;5008319;28;20028;-68
2022/11/14 05:02:52;;;;;;;10.18;3.15;;;;;;;;;;5008108;28;20034;-68
2022/11/14 05:05:17;;;;;;;7.38;3.40;;;;;;;;;;5009331;28;20022;-68
2022/11/14 05:07:42;;;;;;;7.78;3.83;;;;;;;;;;5005961;28;20026;-68
2022/11/14 05:10:08;;;;;;;5.60;3.03;;;;;;;;;;5009782;28;20049;-68
2022/11/14 05:12:33;;;;;;;13.60;3.25;;;;;;;;;;5010432;28;20765;-68
2022/11/14 05:14:58;;;;;;;7.60;3.45;;;;;;;;;;5006600;28;20457;-68
2022/11/14 05:17:23;;;;;;;7.32;3.17;;;;;;;;;;5006094;28;20080;-68
2022/11/14 05:19:48;;;;;;;10.48;3.38;;;;;;;;;;5010253;28;20036;-69
2022/11/14 05:22:14;;;;;;;7.28;3.13;;;;;;;;;;5009383;28;20414;-69
2022/11/14 05:24:39;;;;;;;4.63;2.70;;;;;;;;;;5010246;28;20052;-69
2022/11/14 05:27:04;;;;;;;5.32;3.05;;;;;;;;;;5009853;28;20281;-69
2022/11/14 05:29:29;;;;;;;6.10;3.05;;;;;;;;;;5002231;28;20383;-69
2022/11/14 05:31:55;;;;;;;9.02;2.85;;;;;;;;;;5006243;28;20062;-69
2022/11/14 05:34:20;;;;;;;11.90;3.20;;;;;;;;;;5005282;28;20086;-69
2022/11/14 05:36:45;;;;;;;6.85;3.38;;;;;;;;;;5006727;28;20022;-69
2022/11/14 05:39:10;;;;;;;5.00;2.60;;;;;;;;;;5008933;28;20022;-68
2022/11/14 05:41:35;;;;;;;8.88;3.20;;;;;;;;;;5004212;28;20033;-68
2022/11/14 05:44:02;;;;;;;5.43;2.80;;;;;;;;;;5005340;28;20018;-68
2022/11/14 05:46:28;;;;;;;6.65;3.45;;;;;;;;;;4999535;28;20018;-68
2022/11/14 05:48:53;;;;;;;6.00;3.00;;;;;;;;;;5004175;28;20202;-68
2022/11/14 05:51:18;;;;;;;7.07;3.60;;;;;;;;;;5002535;28;20028;-68
2022/11/14 05:53:43;;;;;;;9.10;3.38;;;;;;;;;;5001400;28;20264;-68
2022/11/14 05:56:10;;;;;;;7.32;3.47;;;;;;;;;;4999632;28;20038;-68
2022/11/14 05:58:35;;;;;;;6.35;3.03;;;;;;;;;;5006238;28;20160;-68
2022/11/14 06:01:05;;;;;;;6.10;3.47;;;;;;;;;;5003971;28;20105;-68
2022/11/14 06:03:31;;;;;;;6.53;3.88;;;;;;;;;;5002350;28;20037;-68
2022/11/14 06:05:58;;;;;;;9.38;3.60;;;;;;;;;;5003377;28;20030;-68
2022/11/14 06:08:23;;;;;;;10.27;4.20;;;;;;;;;;5003146;28;20018;-68
2022/11/14 06:10:48;;;;;;;11.35;3.47;;;;;;;;;;5006328;28;20052;-68
2022/11/14 06:13:14;;;;;;;10.98;4.07;;;;;;;;;;5000031;28;20029;-67
2022/11/14 06:15:39;;;;;;;8.05;3.63;;;;;;;;;;5006755;28;20017;-68
2022/11/14 06:18:04;;;;;;;8.48;3.80;;;;;;;;;;5007711;28;20025;-68
2022/11/14 06:20:30;;;;;;;14.75;4.43;;;;;;;;;;5006855;28;20017;-68
2022/11/14 06:22:55;;;;;;;7.20;4.53;;;;;;;;;;5007739;28;20018;-68
2022/11/14 06:25:20;;;;;;;9.77;6.30;;;;;;;;;;5005736;28;20115;-68
2022/11/14 06:27:45;;;;;;;13.35;5.75;;;;;;;;;;5004478;28;20273;-67
2022/11/14 06:30:10;;;;;;;10.70;4.83;;;;;;;;;;5002505;28;20432;-67
2022/11/14 06:32:36;;;;;;;8.57;4.50;;;;;;;;;;5005468;28;20269;-67
2022/11/14 06:35:01;;;;;;;9.93;4.85;;;;;;;;;;5006023;28;20433;-68
2022/11/14 06:37:26;;;;;;;11.85;5.05;;;;;;;;;;5006132;28;20105;-68
2022/11/14 06:39:51;;;;;;;10.90;4.28;;;;;;;;;;5006354;28;20041;-68
2022/11/14 06:42:16;;;;;;;11.38;4.53;;;;;;;;;;5010598;28;20067;-68
2022/11/14 06:44:41;;;;;;;7.43;4.32;;;;;;;;;;5000183;28;20025;-68
2022/11/14 06:47:07;;;;;;;10.63;5.13;;;;;;;;;;5007208;28;20100;-68
2022/11/14 06:49:32;;;;;;;8.25;3.90;;;;;;;;;;5003740;28;20136;-68
2022/11/14 06:51:57;;;;;;;11.55;4.63;;;;;;;;;;5008494;28;20367;-68
2022/11/14 06:54:22;;;;;;;9.65;4.88;;;;;;;;;;5008741;28;20385;-68
2022/11/14 06:56:47;;;;;;;11.70;5.82;;;;;;;;;;5006953;28;20040;-68
2022/11/14 06:59:13;;;;;;;13.57;6.63;;;;;;;;;;5006988;28;20033;-68
2022/11/14 07:01:39;;;;;;;12.32;5.78;;;;;;;;;;5003530;28;20040;-68
2022/11/14 07:04:04;;;;;;;19.17;5.97;;;;;;;;;;5007441;28;20101;-69
2022/11/14 07:06:29;;;;;;;15.55;7.00;;;;;;;;;;5009473;28;20354;-68
2022/11/14 07:08:55;;;;;;;15.25;7.07;;;;;;;;;;5012214;28;20026;-68
2022/11/14 07:11:22;;;;;;;22.50;6.78;;;;;;;;;;5013344;28;20037;-68
2022/11/14 07:13:51;;;;;;;14.07;7.28;;;;;;;;;;5011083;28;20018;-68
2022/11/14 07:16:16;;;;;;;14.93;6.97;;;;;;;;;;5007579;28;20030;-68
2022/11/14 07:18:42;;;;;;;23.27;7.53;;;;;;;;;;5005396;28;20033;-69
2022/11/14 07:21:07;;;;;;;18.70;7.07;;;;;;;;;;5008234;28;20120;-69
2022/11/14 07:23:33;;;;;;;16.02;7.60;;;;;;;;;;5006043;28;20037;-69
2022/11/14 07:25:59;;;;;;;14.70;6.88;;;;;;;;;;5009649;28;20164;-69
2022/11/14 07:28:24;;;;;;;12.35;6.60;;;;;;;;;;5013482;28;20180;-69
2022/11/14 07:30:50;;;;;;;16.70;7.50;;;;;;;;;;5012259;28;20518;-69
2022/11/14 07:33:15;;;;;;;16.83;6.60;;;;;;;;;;5012583;28;20061;-69
2022/11/14 07:35:40;;;;;;;20.03;7.50;;;;;;;;;;5012996;28;20024;-69
2022/11/14 07:38:05;;;;;;;15.20;6.50;;;;;;;;;;5013168;28;20348;-69
2022/11/14 07:40:31;;;;;;;16.70;8.82;;;;;;;;;;5013795;28;20022;-69
2022/11/14 07:42:59;;;;;;;22.83;8.95;;;;;;;;;;5013500;28;20028;-69
2022/11/14 07:45:25;;;;;;;21.92;9.07;;;;;;;;;;5007845;28;20025;-69
2022/11/14 07:47:53;;;;;;;28.63;10.88;;;;;;;;;;5007845;28;20022;-69
2022/11/14 07:50:18;;;;;;;25.25;11.18;;;;;;;;;;5009138;28;20474;-69
2022/11/14 07:52:49;;;;;;;14.93;5.07;;;;;;;;;;5012398;28;20101;-69
2022/11/14 07:55:14;;;;;;;40.35;17.50;;;;;;;;;;5009983;28;20904;-69
2022/11/14 07:57:40;;;;;;;20.05;8.50;;;;;;;;;;5011290;28;20205;-69
2022/11/14 08:00:05;;;;;;;33.70;11.77;;;;;;;;;;5011786;28;20022;-69
2022/11/14 08:02:30;;;;;;;32.47;11.13;;;;;;;;;;5008475;28;20018;-69
2022/11/14 08:04:55;;;;;;;24.20;9.02;;;;;;;;;;5007186;28;20017;-69
2022/11/14 08:07:21;;;;;;;21.38;7.00;;;;;;;;;;5020810;28;20018;-69
2022/11/14 08:09:46;;;;;;;20.77;9.70;;;;;;;;;;5023282;28;20021;-69
2022/11/14 08:12:11;;;;;;;22.98;9.85;;;;;;;;;;5011170;28;20757;-69
2022/11/14 08:14:36;;;;;;;13.30;7.27;;;;;;;;;;5010191;28;20104;-69
2022/11/14 08:17:01;;;;;;;31.80;13.25;;;;;;;;;;5007007;28;20273;-69
2022/11/14 08:19:26;;;;;;;27.40;10.40;;;;;;;;;;5013514;28;20014;-69
2022/11/14 08:21:52;;;;;;;21.73;8.82;;;;;;;;;;5020672;28;20434;-69
2022/11/14 08:24:17;;;;;;;16.15;8.50;;;;;;;;;;5011244;28;20034;-67
2022/11/14 08:26:42;;;;;;;28.25;11.18;;;;;;;;;;5009775;28;20373;-68
2022/11/14 08:29:07;;;;;;;27.20;12.67;;;;;;;;;;5012013;28;20022;-68
2022/11/14 08:31:32;;;;;;;41.23;18.83;;;;;;;;;;5004787;28;20360;-68
2022/11/14 08:33:57;;;;;;;31.02;13.27;;;;;;;;;;5006135;28;20612;-68
2022/11/14 08:36:23;;;;;;;13.57;6.20;;;;;;;;;;5007731;28;20026;-68
2022/11/14 08:38:48;;;;;;;24.47;7.60;;;;;;;;;;5008032;28;20431;-68
2022/11/14 08:41:13;;;;;;;19.17;9.32;;;;;;;;;;5003652;28;20284;-68
2022/11/14 08:43:39;;;;;;;26.15;10.30;;;;;;;;;;5005554;28;20022;-68
2022/11/14 08:46:04;;;;;;;28.70;12.48;;;;;;;;;;5011969;28;20037;-68
2022/11/14 08:48:30;;;;;;;29.45;13.00;;;;;;;;;;5008520;28;20014;-68
2022/11/14 08:50:55;;;;;;;26.85;10.90;;;;;;;;;;5018905;28;20029;-68
2022/11/14 08:53:20;;;;;;;24.65;11.85;;;;;;;;;;5017088;28;20031;-68
2022/11/14 08:55:46;;;;;;;25.48;10.68;;;;;;;;;;5005653;28;20374;-68
2022/11/14 08:58:11;;;;;;;25.90;12.23;;;;;;;;;;5007745;28;20047;-68
2022/11/14 09:00:36;;;;;;;15.73;8.05;;;;;;;;;;5007094;28;20033;-68
2022/11/14 09:03:09;;;;;;;35.37;12.53;;;;;;;;;;5008016;28;20036;-68
2022/11/14 09:05:34;;;;;;;14.70;6.15;;;;;;;;;;5007423;28;20792;-68
2022/11/14 09:07:59;;;;;;;31.67;13.38;;;;;;;;;;5003854;28;20018;-68
2022/11/14 09:10:25;;;;;;;15.55;9.00;;;;;;;;;;5011028;28;20018;-68
2022/11/14 09:12:56;;;;;;;15.87;7.70;;;;;;;;;;5008433;28;20465;-68
2022/11/14 09:15:21;;;;;;;23.75;9.95;;;;;;;;;;5007596;28;20276;-68
2022/11/14 09:17:47;;;;;;;24.88;11.35;;;;;;;;;;5007331;28;20044;-68
2022/11/14 09:20:12;;;;;;;28.70;14.48;;;;;;;;;;5004982;28;20497;-68
2022/11/14 09:22:37;;;;;;;17.90;8.88;;;;;;;;;;5010035;28;20097;-68
2022/11/14 09:25:02;;;;;;;29.90;12.50;;;;;;;;;;5006506;28;20100;-68
2022/11/14 09:27:27;;;;;;;16.95;7.93;;;;;;;;;;5004454;28;20062;-68
2022/11/14 09:29:53;;;;;;;18.77;8.97;;;;;;;;;;5010857;28;20127;-68
2022/11/14 09:32:18;;;;;;;17.77;8.07;;;;;;;;;;5010111;28;20276;-68
2022/11/14 09:34:44;;;;;;;29.60;12.37;;;;;;;;;;5010421;28;20272;-68
2022/11/14 09:37:09;;;;;;;28.90;13.20;;;;;;;;;;5015809;28;20269;-68
2022/11/14 09:39:39;;;;;;;33.42;13.38;;;;;;;;;;5017292;28;20022;-68
2022/11/14 09:42:23;;;;;;;12.20;5.63;;;;;;;;;;5004530;28;20018;-68
2022/11/14 09:44:58;;;;;;;21.60;8.82;;;;;;;;;;5013324;28;20032;-68
2022/11/14 09:47:33;;;;;;;32.65;14.48;;;;;;;;;;5002071;28;20022;-68
2022/11/14 09:50:01;;;;;;;21.27;9.82;;;;;;;;;;5008034;28;20021;-68
2022/11/14 09:52:35;;;;;;;23.63;9.60;;;;;;;;;;5008959;28;20021;-68
2022/11/14 09:55:12;;;;;;;26.52;10.15;;;;;;;;;;5002174;28;20520;-68
2022/11/14 09:57:38;;;;;;;25.15;10.35;;;;;;;;;;5014424;28;20056;-68
2022/11/14 10:00:13;;;;;;;17.15;7.50;;;;;;;;;;5010474;28;20021;-68
2022/11/14 10:02:43;;;;;;;28.40;11.55;;;;;;;;;;5009218;28;20036;-68
2022/11/14 10:05:23;;;;;;;35.05;14.85;;;;;;;;;;5019502;28;20071;-68
2022/11/14 10:08:11;;;;;;;21.45;8.65;;;;;;;;;;5016181;28;20037;-68
2022/11/14 10:10:42;;;;;;;25.27;11.10;;;;;;;;;;4998171;28;20057;-68
2022/11/14 10:13:10;;;;;;;22.30;9.05;;;;;;;;;;5007767;28;20493;-68
2022/11/14 10:15:53;;;;;;;21.73;8.95;;;;;;;;;;5004985;28;20033;-69
2022/11/14 10:18:33;;;;;;;29.85;12.30;;;;;;;;;;5007088;28;20383;-68
2022/11/14 10:21:17;;;;;;;22.83;7.75;;;;;;;;;;5004529;28;20025;-68
2022/11/14 10:24:02;;;;;;;22.15;9.25;;;;;;;;;;5005481;28;20021;-68
2022/11/14 10:26:29;;;;;;;19.30;8.65;;;;;;;;;;5004790;28;20439;-68
2022/11/14 10:28:54;;;;;;;24.02;9.95;;;;;;;;;;5009976;28;20029;-68
2022/11/14 10:31:38;;;;;;;27.57;8.67;;;;;;;;;;5007890;28;20379;-68
2022/11/14 10:34:06;;;;;;;21.90;9.02;;;;;;;;;;5004181;28;20344;-68
2022/11/14 10:36:34;;;;;;;16.90;8.05;;;;;;;;;;5008173;28;20040;-68
2022/11/14 10:39:08;;;;;;;22.48;10.57;;;;;;;;;;5005178;28;20546;-68
2022/11/14 10:41:33;;;;;;;20.65;8.68;;;;;;;;;;5007726;28;20029;-69
2022/11/14 10:43:59;;;;;;;18.33;8.43;;;;;;;;;;5009359;28;20088;-68
2022/11/14 10:46:31;;;;;;;24.30;9.75;;;;;;;;;;5009431;28;20022;-68
2022/11/14 10:48:57;;;;;;;22.77;8.80;;;;;;;;;;5008843;28;20025;-68
2022/11/14 10:51:32;;;;;;;28.70;11.10;;;;;;;;;;5001256;28;20049;-68
2022/11/14 10:54:03;;;;;;;20.90;8.85;;;;;;;;;;5008517;28;20023;-68
2022/11/14 10:56:28;;;;;;;30.30;12.60;;;;;;;;;;5008080;28;20029;-68
2022/11/14 10:58:54;;;;;;;33.72;11.60;;;;;;;;;;5007682;28;20042;-68
2022/11/14 11:01:33;;;;;;;16.20;6.63;;;;;;;;;;5008032;28;20037;-69
2022/11/14 11:04:09;;;;;;;28.95;11.18;;;;;;;;;;5003595;28;21011;-69
2022/11/14 11:06:35;;;;;;;26.83;10.20;;;;;;;;;;5005919;28;20052;-69
2022/11/14 11:11:57;;;;;;;26.20;10.75;;;;;;;;;;5007843;28;20831;-69
2022/11/14 11:14:22;;;;;;;16.27;7.63;;;;;;;;;;5007774;28;20036;-69
2022/11/14 11:16:47;;;;;;;24.13;9.60;;;;;;;;;;5007199;28;20022;-69
2022/11/14 11:19:14;;;;;;;23.38;11.05;;;;;;;;;;5001533;28;20022;-69
2022/11/14 11:21:47;;;;;;;26.55;10.90;;;;;;;;;;5002184;28;20022;-69
2022/11/14 11:24:28;;;;;;;20.05;8.30;;;;;;;;;;5010172;28;20025;-69
2022/11/14 11:27:11;;;;;;;19.10;8.15;;;;;;;;;;5017871;28;20046;-69
2022/11/14 11:29:36;;;;;;;22.25;10.55;;;;;;;;;;5015682;28;20029;-69
2022/11/14 11:32:01;;;;;;;34.90;13.63;;;;;;;;;;5008500;28;20501;-69
2022/11/14 11:34:29;;;;;;;21.80;10.38;;;;;;;;;;5006095;28;20273;-69
2022/11/14 11:37:10;;;;;;;31.80;13.52;;;;;;;;;;5009465;28;20037;-69
2022/11/14 11:39:39;;;;;;;24.60;8.88;;;;;;;;;;5006561;28;20463;-69
2022/11/14 11:42:07;;;;;;;23.55;11.18;;;;;;;;;;5009032;28;20025;-69
2022/11/14 11:44:39;;;;;;;19.05;9.20;;;;;;;;;;5007524;28;20025;-69
2022/11/14 11:47:08;;;;;;;32.70;12.85;;;;;;;;;;5001411;28;20326;-69
2022/11/14 11:49:43;;;;;;;17.58;8.32;;;;;;;;;;5008559;28;20024;-69
2022/11/14 11:52:27;;;;;;;18.55;8.38;;;;;;;;;;5005578;28;20018;-69
2022/11/14 11:54:57;;;;;;;17.75;5.97;;;;;;;;;;5006378;28;20026;-69
2022/11/14 11:57:25;;;;;;;22.23;10.05;;;;;;;;;;5006022;28;20455;-69
2022/11/14 11:59:53;;;;;;;20.30;7.65;;;;;;;;;;5011728;28;20598;-69
2022/11/14 12:02:24;;;;;;;20.95;8.38;;;;;;;;;;5006529;28;20080;-69
2022/11/14 12:04:50;;;;;;;24.50;7.63;;;;;;;;;;5008385;28;20017;-69
2022/11/14 12:07:19;;;;;;;31.90;11.05;;;;;;;;;;5009904;28;20137;-70
2022/11/14 12:09:44;;;;;;;23.35;10.32;;;;;;;;;;5006183;28;20026;-70
2022/11/14 12:12:20;;;;;;;17.77;7.78;;;;;;;;;;5009802;28;20075;-69
2022/11/14 12:14:50;;;;;;;18.33;7.63;;;;;;;;;;5030408;22;20133;-67
2022/11/14 12:17:34;;;;;;;20.85;8.70;;;;;;;;;;4994589;28;20223;-67
2022/11/14 12:20:18;;;;;;;24.05;9.80;;;;;;;;;;4994983;28;20026;-67
2022/11/14 12:22:43;;;;;;;40.63;13.00;;;;;;;;;;4996172;28;20026;-67
2022/11/14 12:25:25;;;;;;;31.23;10.68;;;;;;;;;;4995219;28;20025;-67
2022/11/14 12:27:56;;;;;;;27.73;13.77;;;;;;;;;;4995948;28;20281;-67
2022/11/14 12:30:22;;;;;;;30.05;13.13;;;;;;;;;;4994764;28;20370;-67
2022/11/14 12:33:00;;;;;;;18.70;9.23;;;;;;;;;;4993660;28;20018;-67
2022/11/14 12:35:31;;;;;;;28.98;10.13;;;;;;;;;;4993509;28;20486;-67
2022/11/14 12:37:58;;;;;;;25.42;10.23;;;;;;;;;;4988815;28;20482;-67
2022/11/14 12:40:40;;;;;;;37.67;16.08;;;;;;;;;;4992777;28;20020;-67
2022/11/14 12:43:25;;;;;;;22.75;7.13;;;;;;;;;;4994082;28;20022;-67
2022/11/14 12:45:50;;;;;;;31.75;13.75;;;;;;;;;;4987904;28;20121;-67
2022/11/14 12:48:24;;;;;;;31.45;11.85;;;;;;;;;;4992746;28;20045;-67
2022/11/14 12:50:50;;;;;;;25.73;10.80;;;;;;;;;;4992715;28;20265;-67
2022/11/14 12:53:37;;;;;;;27.27;11.48;;;;;;;;;;4992801;28;20014;-67
2022/11/14 12:56:38;;;;;;;18.38;7.78;;;;;;;;;;4990761;28;20656;-67
2022/11/14 12:59:22;;;;;;;18.98;7.40;;;;;;;;;;4992222;28;20383;-67
2022/11/14 13:01:53;;;;;;;26.90;11.38;;;;;;;;;;4995856;28;20025;-67
2022/11/14 13:04:36;;;;;;;24.20;12.25;;;;;;;;;;4991546;28;20105;-67
2022/11/14 13:07:19;;;;;;;24.15;8.02;;;;;;;;;;4989285;28;20038;-67
2022/11/14 13:10:03;;;;;;;20.05;7.82;;;;;;;;;;4991632;28;20018;-67
2022/11/14 13:24:08;;;;;;;23.20;11.02;;;;;;;;;;4987769;28;20065;-68
2022/11/14 13:26:34;;;;;;;15.60;7.47;;;;;;;;;;4993733;28;20026;-68
2022/11/14 13:28:59;;;;;;;19.55;8.63;;;;;;;;;;4994683;28;20471;-68
2022/11/14 13:31:45;;;;;;;17.67;9.80;;;;;;;;;;4993830;28;20018;-68
2022/11/14 13:34:29;;;;;;;14.93;5.10;;;;;;;;;;4991284;28;20117;-68
2022/11/14 13:37:04;;;;;;;18.90;7.95;;;;;;;;;;4989338;28;20025;-68
2022/11/14 13:39:38;;;;;;;26.38;10.30;;;;;;;;;;4991951;28;20026;-67
2022/11/14 13:42:10;;;;;;;22.13;5.85;;;;;;;;;;4992295;28;20034;-68
2022/11/14 13:44:54;;;;;;;24.55;9.57;;;;;;;;;;4992093;28;20518;-68
2022/11/14 13:47:30;;;;;;;23.40;11.73;;;;;;;;;;4996535;28;20018;-68
2022/11/14 13:49:59;;;;;;;17.40;7.82;;;;;;;;;;4989151;28;20019;-68
2022/11/14 13:52:30;;;;;;;16.45;7.63;;;;;;;;;;4991068;28;20021;-68
2022/11/14 13:54:55;;;;;;;12.50;5.28;;;;;;;;;;4990697;28;20017;-68
2022/11/14 13:57:41;;;;;;;21.98;9.13;;;;;;;;;;4990721;28;20026;-68
2022/11/14 14:00:12;;;;;;;23.10;11.07;;;;;;;;;;4993845;28;20038;-67
2022/11/14 14:02:39;;;;;;;36.28;12.55;;;;;;;;;;4996449;28;20025;-67
2022/11/14 14:05:15;;;;;;;31.45;13.23;;;;;;;;;;4991751;28;20018;-68
2022/11/14 14:07:55;;;;;;;27.83;12.45;;;;;;;;;;4991451;28;20097;-68
2022/11/14 14:10:27;;;;;;;17.25;7.28;;;;;;;;;;4993238;28;20010;-68
2022/11/14 14:12:52;;;;;;;26.00;11.23;;;;;;;;;;4992016;28;20061;-68
2022/11/14 14:15:29;;;;;;;23.80;9.50;;;;;;;;;;4995582;28;20049;-68
2022/11/14 14:17:59;;;;;;;17.70;8.13;;;;;;;;;;4992888;28;20268;-68
2022/11/14 14:20:30;;;;;;;23.83;10.82;;;;;;;;;;4990332;28;20018;-68
2022/11/14 14:23:12;;;;;;;13.43;6.43;;;;;;;;;;4990759;28;20471;-68
2022/11/14 14:25:54;;;;;;;26.77;11.85;;;;;;;;;;4991312;28;20142;-68
2022/11/14 14:28:37;;;;;;;21.85;9.63;;;;;;;;;;4996904;28;20025;-68
2022/11/14 14:31:05;;;;;;;16.80;7.78;;;;;;;;;;4995963;28;20384;-68
2022/11/14 14:33:37;;;;;;;18.55;8.13;;;;;;;;;;4992572;28;20014;-68
2022/11/14 14:36:03;;;;;;;28.92;12.88;;;;;;;;;;4993885;28;20101;-68
2022/11/14 14:38:28;;;;;;;23.70;9.15;;;;;;;;;;4990294;28;20514;-68
2022/11/14 14:40:54;;;;;;;26.55;10.85;;;;;;;;;;4992436;28;20017;-68
2022/11/14 14:43:24;;;;;;;29.27;10.88;;;;;;;;;;4990326;28;20038;-68
2022/11/14 14:45:51;;;;;;;17.77;9.15;;;;;;;;;;4990359;28;20069;-68
2022/11/14 14:48:26;;;;;;;21.85;11.07;;;;;;;;;;4990442;28;20023;-68
2022/11/14 14:50:53;;;;;;;21.38;9.45;;;;;;;;;;4995554;28;20038;-68